Time;durP1;ratioP1;P1;durP2;ratioP2;P2;SDS_P1;SDS_P2;PMS_P1;PMS_P2;Temp;Humidity;BMP_temperature;BMP_pressure;BME280_temperature;BME280_humidity;BME280_pressure;Samples;Min_cycle;Max_cycle;Signal;HPM_P1;HPM_P2
2023/04/04 00:00:08;;;;;;;;;2.00;2.00;;;;;19.46;31.76;102001.50;5079165;28;45256;-51
2023/04/04 00:02:34;;;;;;;;;2.50;2.25;;;;;19.46;31.48;102005.91;5078559;28;46525;-53
2023/04/04 00:05:00;;;;;;;;;2.00;2.00;;;;;19.44;31.77;102003.34;5078306;28;45245;-52
2023/04/04 00:07:25;;;;;;;;;3.50;3.50;;;;;19.43;32.03;102001.63;5078591;28;45215;-54
2023/04/04 00:09:50;;;;;;;;;2.75;2.00;;;;;19.40;31.33;102001.72;5078814;28;45272;-52
2023/04/04 00:12:16;;;;;;;;;1.50;1.00;;;;;19.38;31.95;101993.00;5078053;28;45314;-53
2023/04/04 00:14:42;;;;;;;;;2.25;2.25;;;;;19.38;31.61;102003.50;5087339;28;45275;-42
2023/04/04 00:17:07;;;;;;;;;2.00;2.00;;;;;19.37;31.28;102001.78;5100110;28;45356;-53
2023/04/04 00:19:32;;;;;;;;;2.00;2.00;;;;;19.37;31.78;102007.06;5080083;28;49936;-52
2023/04/04 00:21:58;;;;;;;;;3.00;3.00;;;;;19.35;31.71;101997.50;5085751;28;47194;-43
2023/04/04 00:24:23;;;;;;;;;2.00;2.00;;;;;19.34;31.31;101998.41;5085650;28;45279;-46
2023/04/04 00:26:49;;;;;;;;;3.50;3.50;;;;;19.33;31.40;102004.56;5078314;28;45318;-46
2023/04/04 00:29:14;;;;;;;;;3.75;3.00;;;;;19.32;31.70;101998.47;5089039;28;45507;-51
2023/04/04 00:31:40;;;;;;;;;3.00;2.25;;;;;19.31;31.38;102002.00;5093881;28;53239;-54
2023/04/04 00:34:05;;;;;;;;;2.50;1.50;;;;;19.31;31.72;102007.25;5098124;27;45445;-51
2023/04/04 00:36:31;;;;;;;;;2.50;2.50;;;;;19.27;31.38;102005.63;5091487;27;44715;-54
2023/04/04 00:38:56;;;;;;;;;2.25;2.00;;;;;19.28;31.40;102008.22;5100678;27;45413;-49
2023/04/04 00:41:22;;;;;;;;;2.00;2.00;;;;;19.28;31.25;102008.22;5081796;28;46044;-54
2023/04/04 00:43:48;;;;;;;;;2.00;2.00;;;;;19.28;31.29;102002.09;5077071;28;45751;-47
2023/04/04 00:46:16;;;;;;;;;4.50;2.75;;;;;19.28;31.60;101999.47;5076950;28;45311;-47
2023/04/04 00:48:42;;;;;;;;;2.00;2.00;;;;;19.27;31.81;102000.38;5077070;28;45593;-53
2023/04/04 00:51:07;;;;;;;;;2.00;2.00;;;;;19.26;31.60;102003.91;5076957;28;46653;-53
2023/04/04 00:53:33;;;;;;;;;2.25;2.25;;;;;19.26;31.27;102003.91;5076718;28;45330;-52
2023/04/04 00:55:58;;;;;;;;;2.00;2.00;;;;;19.25;31.63;101999.56;5076909;28;45264;-54
2023/04/04 00:58:25;;;;;;;;;2.00;2.00;;;;;19.25;31.41;102002.19;5058728;28;45596;-52
2023/04/04 01:00:50;;;;;;;;;1.50;1.50;;;;;19.24;31.64;102000.47;5076405;28;46365;-54
2023/04/04 01:03:17;;;;;;;;;1.00;1.00;;;;;19.25;31.43;101991.66;5076029;28;45350;-55
2023/04/04 01:05:42;;;;;;;;;2.00;2.00;;;;;19.25;31.17;101997.81;5077292;28;45279;-52
2023/04/04 01:08:07;;;;;;;;;2.00;2.00;;;;;19.23;30.99;101996.97;5080113;28;45508;-52
2023/04/04 01:10:34;;;;;;;;;1.00;1.00;;;;;19.24;31.52;101987.31;5080065;28;46483;-53
2023/04/04 01:13:00;;;;;;;;;3.00;1.00;;;;;19.23;31.05;101983.00;5089889;28;45225;-53
2023/04/04 01:15:25;;;;;;;;;2.00;2.00;;;;;19.23;31.47;101985.63;5086269;28;44640;-52
2023/04/04 01:17:54;;;;;;;;;1.00;1.00;;;;;19.23;31.38;101983.00;5084368;28;45338;-55
2023/04/04 01:20:25;;;;;;;;;1.50;1.50;;;;;19.22;31.25;101981.28;5080333;28;46421;-55
2023/04/04 01:22:52;;;;;;;;;1.50;1.50;;;;;19.22;31.29;101986.53;5086900;28;45254;-54
2023/04/04 01:25:20;;;;;;;;;2.00;2.00;;;;;19.22;31.33;101986.53;5100092;28;45286;-51
2023/04/04 01:27:45;;;;;;;;;2.00;2.00;;;;;19.20;31.72;101985.72;5081799;28;45500;-53
2023/04/04 01:30:12;;;;;;;;;2.00;2.00;;;;;19.20;31.58;101989.19;5080792;28;46277;-51
2023/04/04 01:32:55;;;;;;;;;2.50;2.50;;;;;19.20;31.61;101989.19;5097639;28;45179;-53
2023/04/04 01:35:29;;;;;;;;;1.25;1.25;;;;;19.20;31.01;101983.09;5060304;28;45350;-51
2023/04/04 01:38:05;;;;;;;;;2.50;2.00;;;;;19.19;31.17;101992.72;5059688;28;45480;-53
2023/04/04 01:40:38;;;;;;;;;2.00;2.00;;;;;19.19;30.95;101991.88;5041297;28;46141;-47
2023/04/04 01:43:03;;;;;;;;;2.00;2.00;;;;;19.16;31.47;101993.69;5074480;28;45386;-52
2023/04/04 01:45:28;;;;;;;;;1.00;1.00;;;;;19.15;31.29;101991.97;5089391;28;45149;-50
2023/04/04 01:47:55;;;;;;;;;1.50;1.00;;;;;19.13;31.51;101995.56;5103014;28;52189;-46
2023/04/04 01:50:21;;;;;;;;;3.25;3.00;;;;;19.16;31.20;101993.69;5104438;28;46353;-51
2023/04/04 01:52:46;;;;;;;;;2.75;2.00;;;;;19.15;31.54;101994.59;5084650;28;45317;-52
2023/04/04 01:55:11;;;;;;;;;3.00;2.00;;;;;19.13;31.23;101995.56;5079217;28;57450;-54
2023/04/04 01:57:37;;;;;;;;;2.00;1.00;;;;;19.15;31.56;102001.63;5088227;27;45272;-52
2023/04/04 02:00:04;;;;;;;;;2.00;2.00;;;;;19.13;31.55;101996.41;5096161;27;65115;-54
2023/04/04 02:02:29;;;;;;;;;4.00;1.25;;;;;19.13;31.52;102004.28;5079997;28;45885;-52
2023/04/04 02:04:55;;;;;;;;;1.50;1.50;;;;;19.12;31.46;102002.59;5079258;28;45380;-44
2023/04/04 02:07:20;;;;;;;;;1.67;1.00;;;;;19.10;31.16;101993.88;5078962;28;52041;-49
2023/04/04 02:09:45;;;;;;;;;2.00;2.00;;;;;19.11;31.29;101997.34;5078679;28;69021;-45
2023/04/04 02:12:10;;;;;;;;;2.00;2.00;;;;;19.10;31.10;101987.75;5078864;28;47996;-46
2023/04/04 02:14:36;;;;;;;;;2.75;2.75;;;;;19.10;31.18;101995.63;5078920;28;45444;-45
2023/04/04 02:17:02;;;;;;;;;3.00;2.00;;;;;19.10;30.92;101982.50;5078847;28;45302;-48
2023/04/04 02:19:27;;;;;;;;;1.00;1.00;;;;;19.08;30.92;101985.19;5080366;28;46487;-40
2023/04/04 02:21:52;;;;;;;;;2.00;2.00;;;;;19.07;31.15;101980.84;5085799;28;45152;-41
2023/04/04 02:24:18;;;;;;;;;2.00;1.00;;;;;19.08;31.40;101979.06;5097823;28;65412;-43
2023/04/04 02:26:43;;;;;;;;;2.00;2.00;;;;;19.07;31.70;101978.19;5100107;28;44737;-52
2023/04/04 02:29:08;;;;;;;;;1.25;1.25;;;;;19.06;31.32;101978.25;5073971;28;46053;-53
2023/04/04 02:31:34;;;;;;;;;2.00;2.00;;;;;19.06;30.99;101981.72;5103245;28;45937;-52
2023/04/04 02:34:00;;;;;;;;;2.50;2.50;;;;;19.05;31.39;101977.38;5099558;28;44724;-51
2023/04/04 02:36:26;;;;;;;;;1.50;1.50;;;;;19.04;31.29;101978.28;5069935;28;45327;-53
2023/04/04 02:38:51;;;;;;;;;1.00;1.00;;;;;19.06;31.58;101979.09;5058615;28;47183;-54
2023/04/04 02:41:17;;;;;;;;;2.00;2.00;;;;;19.05;31.38;101974.75;5059073;28;45448;-54
2023/04/04 02:43:42;;;;;;;;;2.33;1.33;;;;;19.06;31.28;101973.84;5058262;28;55226;-51
2023/04/04 02:46:07;;;;;;;;;1.25;1.00;;;;;19.05;31.20;101974.75;5069524;28;45347;-52
2023/04/04 02:48:33;;;;;;;;;2.00;2.00;;;;;19.06;31.00;101976.47;5082687;28;46100;-54
2023/04/04 02:50:58;;;;;;;;;1.25;1.25;;;;;19.04;31.59;101965.16;5080901;28;45324;-53
2023/04/04 02:53:24;;;;;;;;;1.25;1.25;;;;;19.05;31.69;101969.50;5092341;28;45288;-54
2023/04/04 02:55:49;;;;;;;;;1.67;1.67;;;;;19.05;31.32;101966.88;5091619;28;47076;-45
2023/04/04 02:58:15;;;;;;;;;3.50;2.00;;;;;19.06;31.54;101965.13;5090052;28;45954;-52
2023/04/04 03:00:40;;;;;;;;;2.00;2.00;;;;;19.04;31.14;101965.16;5085091;28;45240;-53
2023/04/04 03:03:06;;;;;;;;;3.00;3.00;;;;;19.03;31.52;101963.44;5093818;28;45180;-54
2023/04/04 03:05:31;;;;;;;;;2.00;1.00;;;;;19.03;31.29;101966.06;5100811;28;44811;-52
2023/04/04 03:07:58;;;;;;;;;1.00;1.00;;;;;19.03;31.47;101963.44;5089474;28;45246;-48
2023/04/04 03:10:31;;;;;;;;;3.25;2.00;;;;;19.04;31.15;101966.94;5092706;28;45689;-51
2023/04/04 03:12:57;;;;;;;;;1.00;1.00;;;;;19.04;31.53;101970.41;5069140;28;45345;-52
2023/04/04 03:15:23;;;;;;;;;2.00;2.00;;;;;19.02;31.16;101964.34;5099992;28;45144;-50
2023/04/04 03:17:48;;;;;;;;;2.00;2.00;;;;;19.02;31.37;101961.72;5093187;28;45456;-51
2023/04/04 03:20:15;;;;;;;;;4.00;2.00;;;;;19.01;31.55;101962.63;5089866;28;45250;-57
2023/04/04 03:22:40;;;;;;;;;2.00;2.00;;;;;19.01;31.28;101954.75;5092789;28;45429;-51
2023/04/04 03:25:07;;;;;;;;;1.75;1.75;;;;;19.00;31.51;101956.50;5077427;28;44880;-50
2023/04/04 03:27:32;;;;;;;;;1.00;1.00;;;;;18.98;31.25;101957.47;5078370;28;46553;-49
2023/04/04 03:29:58;;;;;;;;;1.75;1.75;;;;;19.00;31.33;101960.91;5077459;28;45409;-50
2023/04/04 03:32:24;;;;;;;;;3.00;2.00;;;;;19.00;31.00;101967.03;5059878;28;45390;-47
2023/04/04 03:34:50;;;;;;;;;2.00;2.00;;;;;19.00;31.27;101963.53;5079178;28;45739;-50
2023/04/04 03:37:16;;;;;;;;;3.00;2.00;;;;;18.99;31.15;101970.56;5077769;28;47073;-54
2023/04/04 03:39:42;;;;;;;;;2.75;2.00;;;;;18.99;31.50;101964.44;5077958;28;45354;-49
2023/04/04 03:42:07;;;;;;;;;2.00;2.00;;;;;18.97;31.29;101968.88;5078164;28;45384;-54
2023/04/04 03:44:32;;;;;;;;;1.00;1.00;;;;;18.96;31.38;101967.16;5078384;28;45231;-51
2023/04/04 03:46:57;;;;;;;;;1.00;1.00;;;;;18.97;31.49;101982.03;5077895;28;45988;-48
2023/04/04 03:49:23;;;;;;;;;2.00;2.00;;;;;18.94;30.99;101966.34;5061869;28;45414;-48
2023/04/04 03:51:48;;;;;;;;;0.00;0.00;;;;;18.94;31.17;101961.97;5079050;28;45388;-50
2023/04/04 03:54:17;;;;;;;;;2.00;2.00;;;;;18.94;31.12;101971.59;5077673;28;45563;-47
2023/04/04 03:56:43;;;;;;;;;2.00;2.00;;;;;18.92;30.85;101968.13;5077050;28;46387;-46
2023/04/04 03:59:08;;;;;;;;;1.00;1.00;;;;;18.93;31.20;101972.47;5077384;28;45371;-49
2023/04/04 04:01:34;;;;;;;;;1.75;1.75;;;;;18.92;31.57;101968.13;5076150;28;45470;-47
2023/04/04 04:04:00;;;;;;;;;1.00;1.00;;;;;18.90;31.46;101970.81;5077651;28;45369;-45
2023/04/04 04:06:25;;;;;;;;;2.50;2.00;;;;;18.92;31.53;101981.25;5089092;28;46983;-50
2023/04/04 04:08:51;;;;;;;;;3.00;3.00;;;;;18.90;31.31;101980.47;5103945;28;44649;-49
2023/04/04 04:11:16;;;;;;;;;3.00;3.00;;;;;18.93;30.99;101986.50;5079853;28;57495;-47
2023/04/04 04:13:41;;;;;;;;;2.00;2.00;;;;;18.99;31.49;101991.56;5082083;28;45624;-41
2023/04/04 04:16:07;;;;;;;;;2.00;2.00;;;;;19.05;30.89;101994.94;5092669;28;45326;-52
2023/04/04 04:18:33;;;;;;;;;5.00;2.00;;;;;19.12;31.38;101994.69;5094098;27;45971;-47
2023/04/04 04:21:01;;;;;;;;;1.00;1.00;;;;;19.21;31.41;101995.31;5085810;28;59529;-47
2023/04/04 04:23:26;;;;;;;;;1.00;1.00;;;;;19.31;31.57;102002.00;5078869;28;45559;-50
2023/04/04 04:25:52;;;;;;;;;2.00;2.00;;;;;19.42;31.23;102005.16;5077993;28;45435;-46
2023/04/04 04:28:17;;;;;;;;;1.75;1.75;;;;;19.51;31.21;102008.38;5077173;28;45355;-45
2023/04/04 04:30:43;;;;;;;;;1.00;1.00;;;;;19.61;31.24;102021.19;5077603;28;45321;-44
2023/04/04 04:33:08;;;;;;;;;2.00;2.00;;;;;19.69;31.14;102018.28;5076929;28;45478;-53
2023/04/04 04:35:40;;;;;;;;;1.00;1.00;;;;;19.78;31.38;102020.66;5077159;28;46099;-52
2023/04/04 04:38:06;;;;;;;;;4.00;3.00;;;;;19.86;30.84;102020.41;5094286;28;45342;-54
2023/04/04 04:40:32;;;;;;;;;2.00;2.00;;;;;19.93;31.18;102031.56;5084728;28;45380;-55
2023/04/04 04:42:58;;;;;;;;;2.00;2.00;;;;;19.99;30.44;102026.13;5077316;28;45469;-46
2023/04/04 04:45:23;;;;;;;;;2.00;2.00;;;;;20.04;30.93;102032.06;5079526;28;46454;-43
2023/04/04 04:47:49;;;;;;;;;2.50;2.00;;;;;20.10;31.17;102028.38;5077588;28;45490;-43
2023/04/04 04:50:15;;;;;;;;;2.00;2.00;;;;;20.13;31.82;102028.28;5086109;27;45303;-49
2023/04/04 04:52:40;;;;;;;;;2.75;2.50;;;;;20.17;31.51;102029.91;5101733;28;44711;-49
2023/04/04 04:55:06;;;;;;;;;2.75;2.75;;;;;20.21;31.85;102028.00;5079121;28;45358;-52
2023/04/04 04:57:33;;;;;;;;;3.00;2.00;;;;;20.24;31.45;102023.50;5077327;28;45223;-52
2023/04/04 04:59:59;;;;;;;;;1.75;1.75;;;;;20.28;31.65;102031.28;5077350;28;45340;-51
2023/04/04 05:02:25;;;;;;;;;4.00;2.25;;;;;20.30;31.94;102019.78;5078606;28;45846;-52
2023/04/04 05:04:50;;;;;;;;;2.00;2.00;;;;;20.37;31.49;102026.53;5088107;28;45245;-53
2023/04/04 05:07:16;;;;;;;;;3.75;2.00;;;;;20.40;31.67;102020.28;5096013;28;44814;-53
2023/04/04 05:09:41;;;;;;;;;3.00;3.00;;;;;20.42;31.64;102018.47;5087300;28;64319;-55
2023/04/04 05:12:07;;;;;;;;;2.50;2.50;;;;;20.41;30.85;102015.91;5086958;28;45337;-52
2023/04/04 05:14:32;;;;;;;;;4.75;4.00;;;;;20.44;30.63;102021.06;5098598;28;45250;-53
2023/04/04 05:16:57;;;;;;;;;3.25;2.00;;;;;20.41;31.21;102016.75;5078790;28;45372;-46
2023/04/04 05:19:23;;;;;;;;;3.00;3.00;;;;;20.41;30.87;102015.91;5078431;28;45377;-44
2023/04/04 05:21:48;;;;;;;;;2.00;2.00;;;;;20.38;30.52;102012.47;5097407;28;45254;-49
2023/04/04 05:24:15;;;;;;;;;3.33;2.33;;;;;20.38;30.72;102011.63;5094445;28;54715;-55
2023/04/04 05:26:41;;;;;;;;;3.50;2.00;;;;;20.36;31.26;102009.03;5077311;28;45838;-56
2023/04/04 05:29:06;;;;;;;;;3.25;3.00;;;;;20.35;30.97;102012.56;5076966;28;45210;-55
2023/04/04 05:31:32;;;;;;;;;3.75;2.00;;;;;20.34;30.87;102004.72;5077010;28;45557;-54
2023/04/04 05:33:58;;;;;;;;;4.25;2.50;;;;;20.32;30.59;102002.16;5095548;27;46279;-44
2023/04/04 05:36:23;;;;;;;;;2.00;2.00;;;;;20.32;30.92;102004.78;5103227;28;44687;-53
2023/04/04 05:38:48;;;;;;;;;2.75;2.75;;;;;20.32;31.05;101999.53;5082749;28;45295;-57
2023/04/04 05:41:14;;;;;;;;;1.00;1.00;;;;;20.30;30.98;101993.47;5078357;28;45487;-53
2023/04/04 05:43:39;;;;;;;;;3.25;3.00;;;;;20.30;31.23;101997.84;5077379;28;46169;-53
2023/04/04 05:46:05;;;;;;;;;3.00;2.00;;;;;20.29;31.17;101999.63;5076315;28;45455;-56
2023/04/04 05:48:30;;;;;;;;;2.00;2.00;;;;;20.28;31.61;102011.06;5076721;28;45467;-51
2023/04/04 05:50:55;;;;;;;;;3.00;3.00;;;;;20.28;31.09;102012.88;5076735;28;45527;-54
2023/04/04 05:53:21;;;;;;;;;1.50;1.00;;;;;20.27;30.97;102022.50;5078906;28;49684;-50
2023/04/04 05:55:50;;;;;;;;;2.00;2.00;;;;;20.26;31.33;102020.78;5080132;28;45489;-56
2023/04/04 05:58:15;;;;;;;;;2.00;2.00;;;;;20.25;31.63;102019.06;5097327;28;45353;-53
2023/04/04 06:00:41;;;;;;;;;2.25;2.00;;;;;20.24;31.00;102026.13;5085203;28;45317;-43
2023/04/04 06:03:06;;;;;;;;;4.25;2.00;;;;;20.24;31.47;102026.13;5062305;28;47368;-44
2023/04/04 06:05:32;;;;;;;;;2.50;2.00;;;;;20.22;31.69;102027.09;5078875;28;67079;-45
2023/04/04 06:07:57;;;;;;;;;2.25;2.25;;;;;20.21;31.72;102026.22;5079953;28;49423;-53
2023/04/04 06:10:22;;;;;;;;;2.67;2.67;;;;;20.21;31.56;102033.28;5061489;28;51932;-54
2023/04/04 06:12:48;;;;;;;;;4.00;2.00;;;;;20.20;31.98;102042.94;5090575;28;46180;-46
2023/04/04 06:15:13;;;;;;;;;2.00;2.00;;;;;20.18;31.84;102043.91;5096829;28;45133;-48
2023/04/04 06:17:38;;;;;;;;;1.00;1.00;;;;;20.18;32.09;102036.00;5084512;28;45322;-48
2023/04/04 06:20:04;;;;;;;;;1.00;1.00;;;;;20.16;31.69;102046.59;5079786;28;45358;-47
2023/04/04 06:22:30;;;;;;;;;1.25;1.00;;;;;20.17;31.87;102057.97;5079918;28;45954;-48
2023/04/04 06:24:56;;;;;;;;;1.75;1.75;;;;;20.15;32.30;102057.16;5079608;28;45467;-50
2023/04/04 06:27:22;;;;;;;;;3.50;2.00;;;;;20.15;31.87;102057.16;5080305;28;45443;-50
2023/04/04 06:29:48;;;;;;;;;1.50;1.00;;;;;20.14;31.92;102063.34;5080401;28;45490;-46
2023/04/04 06:32:13;;;;;;;;;3.50;2.00;;;;;20.13;31.78;102072.13;5061973;28;46567;-44
2023/04/04 06:34:38;;;;;;;;;2.00;2.00;;;;;20.12;32.26;102073.09;5080155;28;45455;-45
2023/04/04 06:37:03;;;;;;;;;4.00;1.67;;;;;20.11;31.76;102074.00;5079159;28;64310;-48
2023/04/04 06:39:30;;;;;;;;;2.50;1.00;;;;;20.11;32.23;102071.34;5094640;28;45275;-52
2023/04/04 06:41:55;;;;;;;;;2.00;2.00;;;;;20.08;32.00;102067.91;5094749;28;46201;-57
2023/04/04 06:44:21;;;;;;;;;4.00;3.00;;;;;20.08;32.24;102083.72;5082530;28;45193;-53
2023/04/04 06:46:47;;;;;;;;;1.25;1.25;;;;;20.09;31.83;102084.56;5062830;28;45274;-56
2023/04/04 06:49:12;;;;;;;;;3.00;2.00;;;;;20.07;31.77;102083.72;5082708;28;45272;-56
2023/04/04 06:51:39;;;;;;;;;2.00;2.00;;;;;20.07;32.17;102086.38;5082072;28;46702;-54
2023/04/04 06:54:05;;;;;;;;;2.00;2.00;;;;;20.06;32.12;102085.53;5080811;28;45415;-53
2023/04/04 06:56:30;;;;;;;;;2.00;2.00;;;;;20.08;31.97;102091.59;5082000;28;45483;-56
2023/04/04 06:58:56;;;;;;;;;2.00;2.00;;;;;20.07;31.39;102096.91;5086804;28;45242;-56
2023/04/04 07:01:21;;;;;;;;;2.00;2.00;;;;;20.05;31.59;102089.06;5081843;28;47208;-56
2023/04/04 07:03:48;;;;;;;;;3.00;2.00;;;;;20.02;31.33;102099.69;5080256;28;57593;-56
2023/04/04 07:06:13;;;;;;;;;3.00;1.75;;;;;20.01;31.37;102097.13;5083814;28;45273;-56
2023/04/04 07:08:38;;;;;;;;;2.25;2.00;;;;;19.97;31.30;102106.88;5088819;28;45434;-56
2023/04/04 07:11:05;;;;;;;;;4.33;2.00;;;;;19.97;31.57;102096.38;5095680;28;73005;-50
2023/04/04 07:13:30;;;;;;;;;2.00;2.00;;;;;19.98;31.71;102095.44;5078271;28;45343;-45
2023/04/04 07:15:56;;;;;;;;;2.00;2.00;;;;;19.98;31.38;102100.72;5094160;28;45252;-47
2023/04/04 07:18:21;;;;;;;;;2.75;2.75;;;;;19.99;31.62;102102.44;5097124;28;45219;-51
2023/04/04 07:20:47;;;;;;;;;4.00;2.00;;;;;19.99;31.24;102099.81;5098919;28;50224;-53
2023/04/04 07:23:15;;;;;;;;;1.00;1.00;;;;;20.01;31.07;102105.84;5089101;28;45351;-50
2023/04/04 07:25:41;;;;;;;;;2.00;2.00;;;;;20.02;31.43;102109.38;5097823;28;45257;-49
2023/04/04 07:28:06;;;;;;;;;2.25;1.75;;;;;20.03;31.21;102111.09;5101606;28;45330;-48
2023/04/04 07:30:32;;;;;;;;;1.50;1.00;;;;;20.02;31.57;102102.31;5101025;28;46147;-48
2023/04/04 07:33:01;;;;;;;;;3.75;2.00;;;;;20.03;30.94;102101.41;5099517;28;45314;-50
2023/04/04 07:35:27;;;;;;;;;2.50;2.50;;;;;20.05;31.74;102096.13;5100546;28;44686;-46
2023/04/04 07:37:53;;;;;;;;;2.00;2.00;;;;;20.03;31.71;102101.41;5100617;28;45341;-48
2023/04/04 07:40:18;;;;;;;;;2.00;2.00;;;;;20.05;31.73;102102.22;5100453;28;45433;-48
2023/04/04 07:42:45;;;;;;;;;2.25;2.25;;;;;20.06;31.26;102105.72;5081197;28;45264;-45
2023/04/04 07:45:11;;;;;;;;;1.00;1.00;;;;;20.05;31.39;102093.47;5096482;28;44780;-47
2023/04/04 07:47:36;;;;;;;;;1.25;1.25;;;;;20.04;31.62;102095.22;5095525;28;45254;-46
2023/04/04 07:50:03;;;;;;;;;2.25;2.00;;;;;20.06;31.72;102101.31;5093138;28;45312;-47
2023/04/04 07:52:31;;;;;;;;;2.25;2.00;;;;;20.06;31.51;102101.31;5086471;28;45151;-48
2023/04/04 07:54:56;;;;;;;;;3.50;3.50;;;;;20.06;31.29;102101.31;5085143;28;45237;-42
2023/04/04 07:57:22;;;;;;;;;1.00;1.00;;;;;20.05;31.32;102091.69;5079540;28;45278;-44
2023/04/04 07:59:47;;;;;;;;;2.75;2.00;;;;;20.07;31.42;102092.50;5078974;28;45365;-46
2023/04/04 08:02:12;;;;;;;;;1.00;1.00;;;;;20.07;31.29;102091.63;5090876;28;47823;-44
2023/04/04 08:04:37;;;;;;;;;3.67;2.00;;;;;20.07;31.53;102096.91;5102708;28;52495;-51
2023/04/04 08:07:03;;;;;;;;;1.75;1.75;;;;;20.08;31.31;102098.63;5103427;28;44943;-53
2023/04/04 08:09:33;;;;;;;;;1.00;1.00;;;;;20.08;31.44;102094.22;5088746;28;45206;-52
2023/04/04 08:11:58;;;;;;;;;2.00;2.00;;;;;20.08;31.23;102094.22;5080505;28;45752;-54
2023/04/04 08:14:23;;;;;;;;;1.25;1.25;;;;;20.03;31.83;102079.50;5079514;28;45328;-55
2023/04/04 08:16:49;;;;;;;;;1.75;1.00;;;;;20.08;31.43;102081.06;5061593;28;45329;-53
2023/04/04 08:19:15;;;;;;;;;2.00;2.00;;;;;20.08;31.86;102077.56;5078171;28;59499;-56
2023/04/04 08:21:41;;;;;;;;;2.00;0.25;;;;;20.09;31.84;102079.28;5083331;28;45358;-57
2023/04/04 08:24:07;;;;;;;;;1.50;1.50;;;;;20.08;31.48;102077.56;5090034;28;45267;-53
2023/04/04 08:26:32;;;;;;;;;2.00;2.00;;;;;20.08;31.70;102083.72;5093648;28;45172;-55
2023/04/04 08:28:57;;;;;;;;;2.00;2.00;;;;;20.09;31.93;102084.56;5091520;28;60681;-54
2023/04/04 08:31:23;;;;;;;;;2.25;1.00;;;;;20.11;31.66;102087.16;5068137;28;45257;-54
2023/04/04 08:33:48;;;;;;;;;3.75;2.50;;;;;20.11;31.62;102084.53;5078199;28;60883;-55
2023/04/04 08:36:15;;;;;;;;;2.00;1.00;;;;;20.12;31.73;102088.88;5081933;28;48317;-56
2023/04/04 08:38:40;;;;;;;;;1.00;1.00;;;;;20.14;31.58;102090.53;5087010;28;46240;-54
2023/04/04 08:41:05;;;;;;;;;1.25;1.25;;;;;20.15;32.03;102083.47;5084834;28;45499;-46
2023/04/04 08:43:34;;;;;;;;;1.00;1.00;;;;;20.15;31.48;102084.38;5088079;27;45283;-54
2023/04/04 08:46:03;;;;;;;;;1.00;1.00;;;;;20.15;31.91;102086.13;5071550;28;45571;-53
2023/04/04 08:48:29;;;;;;;;;3.75;2.00;;;;;20.14;31.49;102087.03;5077592;28;45362;-51
2023/04/04 08:50:58;;;;;;;;;3.00;1.25;;;;;20.13;31.57;102099.34;5085802;28;45343;-55
2023/04/04 08:53:25;;;;;;;;;2.75;2.75;;;;;20.14;31.81;102092.28;5099773;28;45831;-56
2023/04/04 08:55:52;;;;;;;;;1.00;1.00;;;;;20.13;31.83;102095.81;5097401;28;44896;-54
2023/04/04 08:58:17;;;;;;;;;2.00;2.00;;;;;20.12;31.59;102096.78;5082527;28;45253;-54
2023/04/04 09:00:43;;;;;;;;;2.00;2.00;;;;;20.12;31.96;102100.25;5076530;28;45372;-56
2023/04/04 09:03:12;;;;;;;;;2.00;1.50;;;;;20.11;31.84;102105.56;5077681;28;45338;-53
2023/04/04 09:05:37;;;;;;;;;1.00;1.00;;;;;20.12;32.25;102105.50;5077896;28;45420;-53
2023/04/04 09:08:07;;;;;;;;;2.00;2.00;;;;;20.11;31.62;102103.78;5077773;28;46659;-54
2023/04/04 09:10:34;;;;;;;;;4.00;2.00;;;;;20.11;31.72;102100.31;5092654;28;45145;-44
2023/04/04 09:13:03;;;;;;;;;2.00;2.00;;;;;20.10;31.96;102095.97;5098754;28;44803;-47
2023/04/04 09:15:28;;;;;;;;;2.00;2.00;;;;;20.10;31.79;102103.84;5064430;28;45325;-48
2023/04/04 09:17:54;;;;;;;;;2.50;2.00;;;;;20.07;31.54;102103.03;5087875;28;47067;-47
2023/04/04 09:20:35;;;;;;;;;3.33;3.33;;;;;20.06;31.05;102098.69;5087889;28;65930;-50
2023/04/04 09:23:05;;;;;;;;;3.75;3.00;;;;;20.02;31.12;102104.94;5083434;28;45512;-45
2023/04/04 09:25:31;;;;;;;;;1.75;1.75;;;;;20.01;31.44;102100.59;5082066;28;45506;-47
2023/04/04 09:27:56;;;;;;;;;2.00;2.00;;;;;20.01;31.44;102097.97;5097386;28;44913;-53
2023/04/04 09:30:22;;;;;;;;;2.75;2.00;;;;;20.02;31.69;102097.06;5081261;28;45296;-48
2023/04/04 09:32:48;;;;;;;;;4.25;2.00;;;;;20.02;31.17;102091.78;5078542;28;45382;-43
2023/04/04 09:35:14;;;;;;;;;1.25;1.25;;;;;20.04;31.78;102099.66;5061514;28;45374;-44
2023/04/04 09:37:40;;;;;;;;;2.25;2.25;;;;;20.04;31.68;102095.22;5080102;28;46363;-44
2023/04/04 09:40:09;;;;;;;;;3.00;3.00;;;;;20.04;31.35;102095.22;5079292;28;45391;-43
2023/04/04 09:42:34;;;;;;;;;2.00;2.00;;;;;20.03;31.40;102085.63;5078875;28;45435;-45
2023/04/04 09:45:01;;;;;;;;;2.00;2.00;;;;;20.01;31.30;102095.31;5062291;28;45561;-45
2023/04/04 09:47:32;;;;;;;;;2.75;2.75;;;;;19.99;31.17;102098.94;5079951;28;47174;-44
2023/04/04 09:50:06;;;;;;;;;2.00;2.00;;;;;19.98;31.05;102098.09;5079808;28;45810;-51
2023/04/04 09:52:32;;;;;;;;;4.00;3.00;;;;;19.96;31.09;102088.50;5080130;28;45484;-49
2023/04/04 09:54:59;;;;;;;;;2.00;2.00;;;;;19.95;30.73;102086.81;5087128;28;45309;-43
2023/04/04 09:57:29;;;;;;;;;2.75;1.75;;;;;19.95;31.09;102092.91;5095381;28;46240;-43
2023/04/04 10:00:05;;;;;;;;;2.00;2.00;;;;;19.93;30.61;102084.19;5093565;28;45335;-47
2023/04/04 10:02:31;;;;;;;;;1.00;1.00;;;;;19.95;30.70;102086.81;5100194;28;45283;-47
2023/04/04 10:04:57;;;;;;;;;2.00;2.00;;;;;19.95;31.49;102087.66;5096830;28;44885;-52
2023/04/04 10:07:27;;;;;;;;;2.75;1.75;;;;;19.97;30.79;102088.47;5094934;28;45377;-54
2023/04/04 10:09:53;;;;;;;;;1.75;1.75;;;;;19.99;31.42;102088.41;5087469;28;45251;-44
2023/04/04 10:12:24;;;;;;;;;1.50;1.00;;;;;19.99;30.90;102091.03;5082714;28;45321;-55
2023/04/04 10:14:56;;;;;;;;;2.00;2.00;;;;;19.99;31.47;102096.28;5085806;28;45378;-55
2023/04/04 10:17:23;;;;;;;;;2.00;2.00;;;;;20.00;30.81;102092.75;5100089;28;45615;-48
2023/04/04 10:19:48;;;;;;;;;5.00;2.00;;;;;20.01;31.41;102084.81;5091509;28;45945;-51
2023/04/04 10:22:15;;;;;;;;;1.75;1.75;;;;;20.00;30.81;102083.09;5080932;28;45230;-46
2023/04/04 10:24:40;;;;;;;;;3.50;1.00;;;;;19.99;31.21;102073.50;5061132;28;45514;-53
2023/04/04 10:27:08;;;;;;;;;3.00;2.00;;;;;19.99;31.48;102078.75;5078276;28;57953;-48
2023/04/04 10:29:33;;;;;;;;;2.00;2.00;;;;;20.00;31.41;102077.84;5079846;28;45385;-48
2023/04/04 10:32:04;;;;;;;;;3.00;2.00;;;;;19.99;31.13;102076.13;5048094;28;45258;-44
2023/04/04 10:34:46;;;;;;;;;1.50;1.00;;;;;20.00;30.87;102074.34;5086086;28;45512;-51
2023/04/04 10:37:22;;;;;;;;;3.00;1.00;;;;;19.99;31.16;102073.50;5103436;28;45318;-50
2023/04/04 10:40:26;;;;;;;;;2.00;2.00;;;;;20.00;31.20;102079.59;5091612;27;45485;-51
2023/04/04 10:42:53;;;;;;;;;2.75;2.75;;;;;19.98;31.20;102084.94;5079206;28;45401;-51
2023/04/04 10:45:20;;;;;;;;;2.00;2.00;;;;;19.99;30.81;102078.75;5079567;28;45374;-56
2023/04/04 10:47:46;;;;;;;;;1.75;1.75;;;;;20.01;31.22;102076.91;5079274;28;46043;-56
2023/04/04 10:50:12;;;;;;;;;2.00;2.00;;;;;20.02;31.04;102085.69;5079106;28;45885;-52
2023/04/04 10:52:43;;;;;;;;;2.25;2.00;;;;;20.08;31.04;102088.97;5079035;28;45374;-52
2023/04/04 10:55:12;;;;;;;;;22.25;17.50;;;;;20.13;31.38;102080.03;5079220;28;45349;-52
2023/04/04 10:57:41;;;;;;;;;71.00;52.50;;;;;20.18;31.04;102076.34;5078571;28;46349;-52
2023/04/04 11:00:10;;;;;;;;;82.25;69.75;;;;;20.27;30.99;102077.81;5078943;28;45513;-56
2023/04/04 11:02:56;;;;;;;;;77.50;55.75;;;;;20.35;30.84;102064.38;5078537;28;45310;-57
2023/04/04 11:05:25;;;;;;;;;123.75;104.50;;;;;20.42;30.87;102065.03;5078863;28;45504;-58
2023/04/04 11:07:56;;;;;;;;;129.00;102.25;;;;;20.48;30.98;102052.50;5083981;28;47058;-49
2023/04/04 11:10:28;;;;;;;;;116.75;98.75;;;;;20.53;30.80;102053.19;5098190;28;45227;-51
2023/04/04 11:12:55;;;;;;;;;107.75;89.25;;;;;20.58;30.42;102055.66;5090332;28;45328;-56
2023/04/04 11:15:22;;;;;;;;;108.75;87.50;;;;;20.64;30.91;102049.28;5087590;28;45523;-49
2023/04/04 11:17:47;;;;;;;;;107.75;92.25;;;;;20.65;30.66;102046.63;5095525;28;45635;-45
2023/04/04 11:20:22;;;;;;;;;131.67;107.00;;;;;20.70;30.77;102049.09;5080705;28;48635;-55